Time;durP1;ratioP1;P1;durP2;ratioP2;P2;SDS_P1;SDS_P2;PMS_P1;PMS_P2;Temp;Humidity;BMP_temperature;BMP_pressure;BME280_temperature;BME280_humidity;BME280_pressure;Samples;Min_cycle;Max_cycle;Signal;HPM_P1;HPM_P2
2022/08/13 00:02:41;;;;;;;2.93;1.67;;;26.00;38.60;;;;;;5039831;28;20476;-82
2022/08/13 00:05:33;;;;;;;2.00;1.80;;;26.10;38.60;;;;;;5060636;28;20456;-82
2022/08/13 00:08:10;;;;;;;2.03;1.77;;;26.00;38.60;;;;;;5056889;28;20463;-83
2022/08/13 00:10:43;;;;;;;2.20;2.00;;;26.00;38.80;;;;;;5045139;28;20502;-86
2022/08/13 00:13:39;;;;;;;1.93;1.60;;;26.00;38.90;;;;;;5065312;28;20515;-83
2022/08/13 00:16:22;;;;;;;3.10;1.80;;;26.00;39.40;;;;;;5082522;28;20482;-81
2022/08/13 00:18:52;;;;;;;3.73;1.53;;;26.00;39.30;;;;;;5052437;28;20456;-82
2022/08/13 00:21:23;;;;;;;2.07;1.93;;;26.00;39.20;;;;;;5052560;28;20486;-84
2022/08/13 00:23:59;;;;;;;1.90;1.70;;;26.00;39.00;;;;;;5050589;28;20537;-81
2022/08/13 00:26:33;;;;;;;1.90;1.70;;;26.00;38.80;;;;;;5028598;28;20448;-82
2022/08/13 00:29:03;;;;;;;4.27;2.07;;;26.00;38.90;;;;;;5065872;28;20467;-83
2022/08/13 00:31:51;;;;;;;1.97;1.87;;;26.20;38.80;;;;;;5053050;28;20518;-83
2022/08/13 00:34:27;;;;;;;1.87;1.77;;;26.00;39.30;;;;;;5043601;28;20550;-84
2022/08/13 00:39:49;;;;;;;2.60;2.00;;;25.80;39.80;;;;;;5070903;28;20499;-83
2022/08/13 00:42:53;;;;;;;2.00;1.90;;;25.70;40.30;;;;;;5071456;28;20958;-83
2022/08/13 00:45:28;;;;;;;1.70;1.60;;;25.80;40.10;;;;;;5063663;28;20458;-85
2022/08/13 00:51:11;;;;;;;1.90;1.80;;;25.70;39.70;;;;;;5076302;28;20487;-83
2022/08/13 00:54:02;;;;;;;1.93;1.83;;;25.60;40.00;;;;;;5047620;28;20472;-85
2022/08/13 00:56:37;;;;;;;2.60;2.50;;;25.40;40.20;;;;;;5054271;28;20444;-83
2022/08/13 00:59:18;;;;;;;2.30;2.10;;;25.20;40.60;;;;;;5080213;28;20431;-84
2022/08/13 01:01:59;;;;;;;2.10;2.00;;;25.30;40.90;;;;;;5050117;28;20525;-83
2022/08/13 01:04:36;;;;;;;2.50;2.40;;;25.20;41.50;;;;;;5045508;28;20526;-83
2022/08/13 01:10:48;;;;;;;2.10;2.00;;;25.10;42.00;;;;;;5042014;28;20530;-83
2022/08/13 01:13:57;;;;;;;2.93;2.50;;;24.90;42.20;;;;;;5045458;28;20456;-84
2022/08/13 01:16:43;;;;;;;5.60;2.93;;;24.90;42.20;;;;;;5039778;28;20480;-84
2022/08/13 01:19:20;;;;;;;3.40;3.10;;;24.90;42.20;;;;;;5069358;28;20539;-83
2022/08/13 01:21:56;;;;;;;3.30;3.03;;;25.10;43.00;;;;;;5071066;28;20523;-83
2022/08/13 01:24:29;;;;;;;3.57;3.27;;;25.00;43.30;;;;;;5056858;28;20497;-83
2022/08/13 01:27:10;;;;;;;7.13;4.17;;;24.80;43.40;;;;;;5053759;28;20800;-84
2022/08/13 01:30:20;;;;;;;3.23;3.03;;;24.70;43.60;;;;;;5052223;28;20455;-84
2022/08/13 01:32:50;;;;;;;3.33;3.03;;;24.60;43.50;;;;;;5060275;28;20421;-83
2022/08/13 01:35:26;;;;;;;2.73;2.63;;;24.70;43.00;;;;;;5071851;28;20546;-86
2022/08/13 01:37:58;;;;;;;3.67;3.47;;;24.70;43.20;;;;;;5064248;28;20457;-86
2022/08/13 01:40:34;;;;;;;4.40;3.20;;;24.50;43.20;;;;;;5077224;28;20443;-85
2022/08/13 01:43:11;;;;;;;3.97;3.67;;;24.60;43.10;;;;;;5055816;28;20468;-84
2022/08/13 01:45:51;;;;;;;3.40;3.20;;;24.60;43.50;;;;;;5059825;28;20543;-87
2022/08/13 01:51:37;;;;;;;3.77;3.47;;;24.70;43.40;;;;;;5077776;28;20472;-82
2022/08/13 01:54:16;;;;;;;4.13;3.73;;;24.40;43.60;;;;;;5053866;28;20554;-84
2022/08/13 01:57:10;;;;;;;3.60;3.40;;;24.40;43.70;;;;;;5049552;28;20934;-83
2022/08/13 01:59:54;;;;;;;3.70;3.40;;;24.50;44.10;;;;;;5050637;28;20448;-85
2022/08/13 02:02:29;;;;;;;3.77;3.47;;;24.50;44.10;;;;;;5059302;28;20456;-82
2022/08/13 02:05:12;;;;;;;4.40;3.60;;;24.50;44.60;;;;;;5075633;28;20554;-82
2022/08/13 02:08:02;;;;;;;4.00;3.70;;;24.40;45.00;;;;;;5056549;28;20452;-85
2022/08/13 02:10:32;;;;;;;3.80;3.50;;;24.30;45.10;;;;;;5059826;28;20452;-85
2022/08/13 02:13:18;;;;;;;3.67;3.47;;;24.30;45.10;;;;;;5056186;28;20501;-84
2022/08/13 02:15:52;;;;;;;4.53;3.90;;;24.20;45.30;;;;;;5064024;28;20447;-85
2022/08/13 02:18:26;;;;;;;4.03;3.73;;;24.20;45.20;;;;;;5074137;28;20498;-86
2022/08/13 02:21:01;;;;;;;3.73;3.53;;;24.20;45.30;;;;;;5042085;28;20512;-83
2022/08/13 02:23:56;;;;;;;3.87;3.60;;;23.90;45.50;;;;;;5049683;28;20483;-84
2022/08/13 02:26:32;;;;;;;4.40;3.87;;;23.80;45.60;;;;;;5049949;28;20448;-84
2022/08/13 02:29:07;;;;;;;7.37;4.63;;;23.70;45.50;;;;;;5042064;28;20440;-83
2022/08/13 02:31:48;;;;;;;4.30;4.00;;;23.60;45.70;;;;;;5051996;28;20548;-83
2022/08/13 02:34:35;;;;;;;4.20;3.90;;;23.60;46.60;;;;;;5062033;28;20502;-85
2022/08/13 02:37:21;;;;;;;5.60;3.50;;;23.60;46.60;;;;;;5065293;28;20453;-83
2022/08/13 02:43:05;;;;;;;4.23;3.83;;;23.60;46.70;;;;;;5063624;28;20528;-83
2022/08/13 02:45:38;;;;;;;4.60;3.80;;;23.80;45.90;;;;;;5050879;28;20465;-83
2022/08/13 02:48:09;;;;;;;4.17;3.87;;;23.70;45.50;;;;;;5042537;28;20483;-84
2022/08/13 02:50:45;;;;;;;4.13;3.83;;;23.60;45.60;;;;;;5043594;28;20476;-82
2022/08/13 02:53:23;;;;;;;4.13;3.73;;;23.60;45.80;;;;;;5061107;28;20476;-83
2022/08/13 02:55:52;;;;;;;3.80;3.50;;;23.60;46.00;;;;;;5042234;28;20455;-84
2022/08/13 02:58:27;;;;;;;3.60;3.30;;;23.70;46.20;;;;;;5051870;28;20452;-83
2022/08/13 03:00:58;;;;;;;4.00;3.70;;;23.70;45.70;;;;;;5058115;28;20483;-83
2022/08/13 03:03:51;;;;;;;4.37;4.00;;;23.60;45.40;;;;;;5040002;28;20495;-84
2022/08/13 03:06:28;;;;;;;3.80;3.53;;;23.70;45.60;;;;;;5038213;28;20449;-84
2022/08/13 03:09:06;;;;;;;4.37;3.97;;;23.80;45.70;;;;;;5054183;28;20443;-86
2022/08/13 03:11:55;;;;;;;4.83;3.53;;;23.80;45.70;;;;;;5057735;28;20475;-84
2022/08/13 03:14:48;;;;;;;3.83;3.63;;;23.80;45.70;;;;;;5062389;28;21388;-84
2022/08/13 03:17:29;;;;;;;4.77;3.90;;;23.90;45.90;;;;;;5043965;28;20468;-84
2022/08/13 03:20:22;;;;;;;4.07;3.77;;;23.90;45.70;;;;;;5046106;28;20467;-84
2022/08/13 03:23:02;;;;;;;4.70;4.30;;;23.90;46.00;;;;;;5043432;28;20468;-85
2022/08/13 03:25:39;;;;;;;4.77;4.23;;;23.90;45.70;;;;;;5059452;28;20457;-85
2022/08/13 03:28:10;;;;;;;4.00;3.70;;;23.80;46.10;;;;;;5046095;28;20484;-85
2022/08/13 03:30:37;;;;;;;5.07;4.70;;;23.70;46.30;;;;;;5054867;28;20563;-84
2022/08/13 03:33:17;;;;;;;5.00;3.50;;;23.70;46.30;;;;;;5053010;28;20874;-84
2022/08/13 03:35:50;;;;;;;4.33;3.93;;;23.50;46.20;;;;;;5071545;28;20512;-86
2022/08/13 03:38:21;;;;;;;3.97;3.67;;;23.50;46.50;;;;;;5064280;28;20455;-84
2022/08/13 03:41:00;;;;;;;3.97;3.67;;;23.40;46.70;;;;;;5059244;28;20520;-86
2022/08/13 03:43:38;;;;;;;3.37;3.17;;;23.40;47.00;;;;;;5052960;28;20459;-82
2022/08/13 03:46:28;;;;;;;4.27;3.97;;;23.50;46.90;;;;;;5067638;28;20471;-83
2022/08/13 03:48:58;;;;;;;4.20;3.90;;;23.50;47.00;;;;;;5037196;28;20479;-84
2022/08/13 03:51:25;;;;;;;3.83;3.63;;;23.50;46.90;;;;;;5057774;28;20563;-84
2022/08/13 03:54:07;;;;;;;4.20;3.90;;;23.60;46.80;;;;;;5059596;28;20484;-82
2022/08/13 03:56:45;;;;;;;3.83;3.60;;;23.50;46.80;;;;;;5045233;28;20482;-84
2022/08/13 03:59:22;;;;;;;4.30;3.90;;;23.50;46.30;;;;;;5055784;28;21337;-83
2022/08/13 04:02:01;;;;;;;3.93;3.63;;;23.30;46.70;;;;;;5043375;28;21003;-84
2022/08/13 04:04:33;;;;;;;4.60;4.10;;;23.30;47.30;;;;;;5045293;28;20480;-83
2022/08/13 04:07:09;;;;;;;4.03;3.73;;;23.20;47.20;;;;;;5030864;28;20564;-84
2022/08/13 04:09:39;;;;;;;3.80;3.50;;;23.20;47.20;;;;;;5053288;28;20468;-84
2022/08/13 04:12:16;;;;;;;7.70;4.30;;;23.30;47.10;;;;;;5046933;28;20566;-82
2022/08/13 04:14:50;;;;;;;4.30;3.90;;;23.30;47.20;;;;;;5055607;28;20897;-83
2022/08/13 04:17:29;;;;;;;4.03;3.77;;;23.40;47.00;;;;;;5045286;28;20845;-84
2022/08/13 04:20:07;;;;;;;3.90;3.60;;;23.40;47.20;;;;;;5062504;28;20445;-82
2022/08/13 04:22:44;;;;;;;4.00;3.70;;;23.50;46.90;;;;;;5062156;28;20460;-82
2022/08/13 04:25:23;;;;;;;4.20;3.73;;;23.40;46.80;;;;;;5045045;28;20456;-84
2022/08/13 04:27:59;;;;;;;3.63;3.43;;;23.40;47.10;;;;;;5041909;28;20875;-84
2022/08/13 04:30:35;;;;;;;4.30;3.90;;;23.20;47.20;;;;;;5037551;28;20464;-83
2022/08/13 04:33:16;;;;;;;4.07;3.77;;;23.20;47.40;;;;;;5043680;28;20491;-83
2022/08/13 04:35:56;;;;;;;8.00;3.73;;;23.30;47.50;;;;;;5054762;28;20479;-84
2022/08/13 04:38:25;;;;;;;4.20;3.87;;;23.20;47.80;;;;;;5060983;28;20535;-83
2022/08/13 04:41:03;;;;;;;4.10;3.70;;;23.10;47.90;;;;;;5062846;28;20464;-83
2022/08/13 04:43:38;;;;;;;4.10;3.80;;;23.00;48.20;;;;;;5050560;28;20472;-83
2022/08/13 04:46:15;;;;;;;3.90;3.60;;;23.20;48.60;;;;;;5042838;28;20464;-85
2022/08/13 04:48:55;;;;;;;7.07;3.93;;;23.10;48.50;;;;;;5041964;28;20456;-84
2022/08/13 04:51:38;;;;;;;3.60;3.40;;;23.20;48.60;;;;;;5042966;28;20527;-84
2022/08/13 04:54:09;;;;;;;4.23;3.93;;;23.20;48.40;;;;;;5034376;28;20472;-82
2022/08/13 04:56:44;;;;;;;4.00;3.60;;;23.10;48.40;;;;;;5039501;28;20456;-83
2022/08/13 04:59:26;;;;;;;4.20;3.80;;;23.20;48.30;;;;;;5043671;28;20489;-84
2022/08/13 05:02:01;;;;;;;3.70;3.50;;;23.20;48.30;;;;;;5048920;28;21332;-84
2022/08/13 05:04:37;;;;;;;4.10;3.80;;;23.10;48.10;;;;;;5040518;28;20905;-83
2022/08/13 05:07:21;;;;;;;4.13;3.73;;;23.20;48.10;;;;;;5040030;28;20464;-84
2022/08/13 05:10:03;;;;;;;4.10;3.53;;;23.30;47.60;;;;;;5056244;28;20471;-84
2022/08/13 05:12:39;;;;;;;4.13;3.80;;;23.20;47.70;;;;;;5059021;28;20480;-83
2022/08/13 05:15:18;;;;;;;3.50;3.30;;;23.10;47.70;;;;;;5051535;28;20499;-84
2022/08/13 05:18:06;;;;;;;3.93;3.67;;;23.10;47.80;;;;;;5053576;28;20480;-84
2022/08/13 05:20:36;;;;;;;6.03;3.90;;;23.00;48.00;;;;;;5047387;28;20441;-85
2022/08/13 05:23:08;;;;;;;4.60;3.57;;;22.90;48.00;;;;;;5051202;28;20452;-83
2022/08/13 05:26:04;;;;;;;3.77;3.57;;;22.90;48.20;;;;;;5047749;28;20453;-85
2022/08/13 05:28:58;;;;;;;3.40;3.20;;;22.90;48.10;;;;;;5052502;28;20465;-84
2022/08/13 05:31:34;;;;;;;4.17;3.87;;;23.00;48.10;;;;;;5048325;28;20456;-84
2022/08/13 05:34:19;;;;;;;3.87;3.57;;;22.70;48.30;;;;;;5047808;28;20484;-83
2022/08/13 05:37:00;;;;;;;4.30;4.03;;;22.90;49.00;;;;;;5050991;28;20445;-85
2022/08/13 05:39:52;;;;;;;5.03;3.70;;;23.00;49.60;;;;;;5055797;28;20473;-84
2022/08/13 05:42:31;;;;;;;4.03;3.73;;;23.10;49.50;;;;;;5047560;28;20463;-84
2022/08/13 05:45:07;;;;;;;3.43;3.23;;;23.10;49.70;;;;;;5047224;28;20480;-84
2022/08/13 05:47:48;;;;;;;4.13;3.87;;;23.10;49.60;;;;;;5047862;28;20534;-84
2022/08/13 05:50:20;;;;;;;4.83;4.43;;;23.20;49.50;;;;;;5045641;28;20468;-83
2022/08/13 05:52:50;;;;;;;3.93;3.73;;;23.00;50.40;;;;;;5041687;28;20476;-83
2022/08/13 05:55:28;;;;;;;3.93;3.63;;;23.20;49.30;;;;;;5043709;28;20550;-82
2022/08/13 05:58:31;;;;;;;4.37;4.00;;;23.10;49.50;;;;;;5056856;28;20547;-83
2022/08/13 06:03:55;;;;;;;4.90;3.30;;;23.20;49.10;;;;;;5060537;28;20529;-84
2022/08/13 06:06:43;;;;;;;4.47;4.17;;;23.20;48.80;;;;;;5061716;28;20492;-85
2022/08/13 06:09:21;;;;;;;3.90;3.60;;;23.10;49.20;;;;;;5055920;28;20535;-84
2022/08/13 06:12:01;;;;;;;4.20;3.40;;;23.20;49.10;;;;;;5046592;28;20913;-80
2022/08/13 06:14:35;;;;;;;3.90;3.60;;;23.20;48.90;;;;;;5067635;28;20464;-83
2022/08/13 06:17:05;;;;;;;3.70;3.33;;;23.20;49.00;;;;;;5042492;28;20464;-84
2022/08/13 06:19:43;;;;;;;3.77;2.97;;;23.20;49.00;;;;;;5058958;28;20440;-82
2022/08/13 06:22:11;;;;;;;3.67;3.37;;;23.30;49.00;;;;;;5051287;28;20464;-84
2022/08/13 06:24:38;;;;;;;3.60;3.40;;;23.60;49.20;;;;;;5059127;28;20459;-85
2022/08/13 06:27:18;;;;;;;3.50;3.30;;;25.50;47.20;;;;;;5068432;28;20452;-86
2022/08/13 06:29:47;;;;;;;4.03;3.73;;;29.10;42.20;;;;;;5073349;28;20463;-85
2022/08/13 06:32:19;;;;;;;3.60;3.40;;;31.20;38.60;;;;;;5059549;28;20516;-83
2022/08/13 06:35:06;;;;;;;4.97;3.17;;;33.30;35.40;;;;;;5055629;28;20475;-82
2022/08/13 06:37:35;;;;;;;3.50;3.20;;;34.00;33.80;;;;;;5044637;28;20523;-85
2022/08/13 06:40:07;;;;;;;3.60;3.30;;;34.70;32.30;;;;;;5059744;28;20448;-84
2022/08/13 06:42:44;;;;;;;3.37;3.07;;;33.30;32.20;;;;;;5058501;28;20822;-84
2022/08/13 06:45:12;;;;;;;3.70;3.40;;;30.90;35.10;;;;;;5059271;28;20510;-85
2022/08/13 06:47:39;;;;;;;3.83;3.53;;;29.00;37.80;;;;;;5064885;28;20453;-84
2022/08/13 06:50:10;;;;;;;3.23;2.93;;;27.60;40.30;;;;;;5056222;28;20471;-83
2022/08/13 06:52:38;;;;;;;3.77;3.47;;;26.70;42.10;;;;;;5047203;28;20538;-85
2022/08/13 06:55:07;;;;;;;3.30;3.10;;;26.10;43.00;;;;;;5041650;28;21044;-83
2022/08/13 06:57:56;;;;;;;3.47;3.17;;;25.60;43.80;;;;;;5049735;28;20448;-84
2022/08/13 07:00:38;;;;;;;4.37;3.70;;;25.40;44.40;;;;;;5043774;28;20452;-84
2022/08/13 07:03:06;;;;;;;3.33;3.10;;;25.20;44.80;;;;;;5044543;28;20462;-83
2022/08/13 07:05:35;;;;;;;4.10;3.50;;;24.90;45.60;;;;;;5026796;28;20496;-83
2022/08/13 07:08:04;;;;;;;4.20;3.00;;;25.10;45.20;;;;;;5043042;28;20493;-84
2022/08/13 07:10:32;;;;;;;3.27;3.07;;;25.10;45.50;;;;;;5047460;28;20950;-85
2022/08/13 07:13:00;;;;;;;3.10;2.90;;;25.60;44.90;;;;;;5035192;28;20547;-85
2022/08/13 07:15:31;;;;;;;3.67;3.27;;;26.00;43.80;;;;;;5043668;28;20453;-84
2022/08/13 07:18:06;;;;;;;2.90;2.70;;;26.20;43.70;;;;;;5030745;28;20532;-84
2022/08/13 07:20:34;;;;;;;3.13;2.93;;;26.50;42.80;;;;;;5054571;28;20463;-86
2022/08/13 07:23:04;;;;;;;3.30;3.00;;;27.30;41.60;;;;;;5054449;28;20459;-86
2022/08/13 07:25:52;;;;;;;2.80;2.60;;;27.40;41.20;;;;;;5033658;28;20468;-84
2022/08/13 07:28:25;;;;;;;2.57;2.40;;;28.40;39.80;;;;;;5056839;28;20456;-85
2022/08/13 07:31:09;;;;;;;3.50;3.20;;;31.10;36.90;;;;;;5046058;28;20424;-85
2022/08/13 07:33:42;;;;;;;3.20;3.00;;;33.80;33.30;;;;;;5042822;28;20495;-86
2022/08/13 07:36:14;;;;;;;2.70;2.47;;;35.70;30.40;;;;;;5038263;28;20467;-85
2022/08/13 07:38:42;;;;;;;2.60;2.50;;;37.00;29.00;;;;;;5057431;28;20447;-84
2022/08/13 07:41:11;;;;;;;2.47;2.33;;;37.70;28.30;;;;;;5055199;28;20452;-83
2022/08/13 07:43:42;;;;;;;2.43;2.23;;;38.30;27.90;;;;;;5064420;28;20487;-83
2022/08/13 07:46:29;;;;;;;2.23;2.10;;;39.00;26.80;;;;;;5056023;28;20449;-84
2022/08/13 07:48:58;;;;;;;3.00;2.20;;;37.40;27.40;;;;;;5067021;28;20448;-82
2022/08/13 07:51:25;;;;;;;2.30;2.03;;;35.90;28.60;;;;;;5076644;28;20452;-83
2022/08/13 07:53:54;;;;;;;3.07;2.63;;;36.90;28.40;;;;;;5045832;28;20485;-84
2022/08/13 07:56:28;;;;;;;2.03;1.90;;;37.90;27.50;;;;;;5052586;28;20836;-85
2022/08/13 07:59:18;;;;;;;2.20;2.10;;;39.60;26.30;;;;;;5059303;28;20452;-86
2022/08/13 08:01:52;;;;;;;2.80;2.60;;;40.10;25.60;;;;;;5063723;28;20515;-84
2022/08/13 08:04:41;;;;;;;2.00;1.90;;;38.70;26.00;;;;;;5036045;28;20485;-85
2022/08/13 08:07:14;;;;;;;2.17;2.07;;;38.90;26.50;;;;;;5039539;28;20468;-83
2022/08/13 08:09:41;;;;;;;1.93;1.83;;;39.40;25.80;;;;;;5032393;28;20543;-85
2022/08/13 08:14:55;;;;;;;2.10;2.00;;;41.50;24.00;;;;;;5055444;28;20475;-84
2022/08/13 08:17:27;;;;;;;2.73;2.20;;;41.30;23.90;;;;;;5036404;28;20458;-85
2022/08/13 08:20:21;;;;;;;2.23;2.13;;;41.30;23.80;;;;;;5033079;28;21071;-84
2022/08/13 08:22:50;;;;;;;2.03;1.80;;;40.10;24.50;;;;;;5037066;28;20486;-83
2022/08/13 08:25:18;;;;;;;1.97;1.87;;;40.70;24.00;;;;;;5061938;28;20462;-85
2022/08/13 08:27:48;;;;;;;1.97;1.87;;;40.10;24.20;;;;;;5049539;28;20456;-85
2022/08/13 08:30:20;;;;;;;2.13;2.03;;;40.10;24.40;;;;;;5049316;28;20479;-84
2022/08/13 08:32:53;;;;;;;2.63;2.13;;;40.40;24.40;;;;;;5056780;28;20499;-85
2022/08/13 08:35:21;;;;;;;2.33;1.80;;;40.50;24.10;;;;;;5039043;28;20456;-85
2022/08/13 08:43:51;;;;;;;1.87;1.77;;;39.70;24.40;;;;;;5043314;28;20491;-84
2022/08/13 08:46:20;;;;;;;4.23;2.00;;;38.50;25.20;;;;;;5021993;28;20506;-85
2022/08/13 08:48:48;;;;;;;1.90;1.80;;;38.20;25.80;;;;;;5031734;28;20550;-84
2022/08/13 08:51:22;;;;;;;2.53;2.03;;;39.70;24.90;;;;;;5035160;28;20456;-83
2022/08/13 08:53:49;;;;;;;1.83;1.73;;;39.30;24.60;;;;;;5044201;28;20495;-85
2022/08/13 08:56:29;;;;;;;2.03;1.90;;;39.60;24.90;;;;;;5041052;28;20457;-84
2022/08/13 08:58:58;;;;;;;2.00;1.90;;;40.50;24.30;;;;;;5064900;28;20452;-85
2022/08/13 09:01:25;;;;;;;2.00;1.90;;;40.30;24.20;;;;;;5051549;28;20447;-86
2022/08/13 09:03:56;;;;;;;2.10;1.90;;;40.60;23.90;;;;;;5043906;28;20556;-86
2022/08/13 09:06:28;;;;;;;1.93;1.83;;;40.80;23.70;;;;;;5067949;28;20479;-84
2022/08/13 09:09:01;;;;;;;1.40;1.30;;;40.60;23.70;;;;;;5063092;28;20505;-85
2022/08/13 09:11:34;;;;;;;1.83;1.73;;;40.90;23.40;;;;;;5043444;28;20467;-84
2022/08/13 09:14:08;;;;;;;1.90;1.80;;;40.70;23.50;;;;;;5055450;28;20493;-85
2022/08/13 09:16:39;;;;;;;1.50;1.40;;;40.50;23.40;;;;;;5062586;28;20443;-84
2022/08/13 09:19:07;;;;;;;1.97;1.77;;;39.50;24.00;;;;;;5048302;28;20448;-85
2022/08/13 09:21:48;;;;;;;1.73;1.57;;;39.40;24.20;;;;;;5050869;28;20483;-85
2022/08/13 09:24:15;;;;;;;1.60;1.50;;;39.70;24.00;;;;;;5060615;28;20515;-85
2022/08/13 09:26:47;;;;;;;1.73;1.63;;;39.40;24.00;;;;;;5045056;28;20724;-85
2022/08/13 09:29:24;;;;;;;1.70;1.60;;;39.30;24.20;;;;;;5047660;28;20551;-86
2022/08/13 09:31:56;;;;;;;1.90;1.80;;;38.70;24.60;;;;;;5059754;28;20485;-83
2022/08/13 09:34:23;;;;;;;2.00;1.73;;;38.70;24.90;;;;;;5048665;28;20574;-83
2022/08/13 09:36:56;;;;;;;1.77;1.67;;;38.90;24.90;;;;;;5054780;28;20465;-84
2022/08/13 09:39:39;;;;;;;2.03;1.90;;;38.80;24.60;;;;;;5049350;28;20444;-84
2022/08/13 09:42:16;;;;;;;1.50;1.40;;;38.80;24.70;;;;;;5052837;28;20444;-84
2022/08/13 09:44:51;;;;;;;1.63;1.53;;;38.60;24.80;;;;;;5031892;23;20506;-84
2022/08/13 09:47:17;;;;;;;1.63;1.53;;;38.90;24.70;;;;;;5032733;28;20453;-84
2022/08/13 09:50:06;;;;;;;1.80;1.70;;;39.20;24.50;;;;;;5029253;28;20469;-84
2022/08/13 09:52:33;;;;;;;1.83;1.73;;;38.70;24.80;;;;;;5038141;28;20857;-83
2022/08/13 09:55:06;;;;;;;1.80;1.70;;;38.80;24.60;;;;;;5039607;28;20504;-83
2022/08/13 09:58:00;;;;;;;1.80;1.70;;;38.10;24.90;;;;;;5022508;28;20935;-84
2022/08/13 10:00:30;;;;;;;2.00;1.90;;;37.50;25.50;;;;;;5033587;28;20495;-83
2022/08/13 10:06:35;;;;;;;1.70;1.60;;;37.90;25.00;;;;;;5063887;23;20491;-84
2022/08/13 10:56:48;;;;;;;1.77;1.67;;;37.50;25.30;;;;;;4537887;22;20538;-83
2022/08/13 11:02:37;;;;;;;3.00;1.80;;;39.10;24.40;;;;;;5004365;28;20469;-85
2022/08/13 11:05:32;;;;;;;1.80;1.70;;;38.50;24.90;;;;;;5002887;28;20453;-84
2022/08/13 11:08:21;;;;;;;3.77;3.47;;;38.50;25.10;;;;;;5007531;28;20448;-84
2022/08/13 11:11:27;;;;;;;1.50;1.40;;;38.90;24.10;;;;;;4997972;28;20554;-85
2022/08/13 11:14:09;;;;;;;1.60;1.50;;;38.60;24.40;;;;;;5003679;28;20489;-84
2022/08/13 11:19:40;;;;;;;2.20;1.53;;;38.30;24.50;;;;;;5014712;28;20453;-84
2022/08/13 11:22:28;;;;;;;4.60;1.70;;;37.80;24.50;;;;;;4995679;28;20544;-85
2022/08/13 11:25:15;;;;;;;1.67;1.57;;;37.10;25.20;;;;;;5005740;28;21054;-86
2022/08/13 11:28:28;;;;;;;3.17;1.40;;;37.80;24.80;;;;;;5008234;28;20448;-83
2022/08/13 11:31:01;;;;;;;1.70;1.60;;;37.20;24.80;;;;;;5013365;28;20457;-84
2022/08/13 11:36:30;;;;;;;1.97;1.87;;;37.90;24.40;;;;;;5157124;22;21061;-84
2022/08/13 11:39:15;;;;;;;1.70;1.60;;;38.00;24.30;;;;;;5028147;28;20461;-86
2022/08/13 11:42:04;;;;;;;1.13;1.13;;;37.80;24.60;;;;;;5035215;28;20465;-84
2022/08/13 11:44:47;;;;;;;1.60;1.50;;;37.90;24.60;;;;;;5017909;28;20470;-85
2022/08/13 11:47:14;;;;;;;1.83;1.73;;;37.50;24.70;;;;;;5029136;28;20446;-84
2022/08/13 11:49:47;;;;;;;1.70;1.60;;;37.30;24.70;;;;;;5038817;28;20445;-84
2022/08/13 11:55:41;;;;;;;1.80;1.70;;;37.30;24.90;;;;;;5001109;28;20998;-83
2022/08/13 11:58:26;;;;;;;1.60;1.50;;;36.50;25.10;;;;;;5001418;28;20479;-85
2022/08/13 12:00:59;;;;;;;1.50;1.40;;;37.10;25.00;;;;;;4999470;28;20629;-86
2022/08/13 12:03:27;;;;;;;1.77;1.43;;;36.70;25.00;;;;;;4997262;28;20573;-86
2022/08/13 12:06:14;;;;;;;2.30;1.63;;;37.40;25.10;;;;;;4981288;28;20473;-83
2022/08/13 12:26:58;;;;;;;2.40;1.70;;;37.80;24.40;;;;;;4996341;28;20545;-83
2022/08/13 12:30:02;;;;;;;2.73;1.50;;;37.60;24.40;;;;;;4994226;28;20459;-87
2022/08/13 12:32:52;;;;;;;1.87;1.77;;;38.20;23.50;;;;;;4952999;28;20592;-83
2022/08/13 12:35:30;;;;;;;1.40;1.30;;;37.60;23.90;;;;;;4965466;28;21096;-85
2022/08/13 12:38:19;;;;;;;1.67;1.57;;;37.50;24.40;;;;;;5019277;28;20453;-85
2022/08/13 12:41:21;;;;;;;1.67;1.57;;;38.30;23.50;;;;;;5035645;28;20488;-85
2022/08/13 12:44:13;;;;;;;1.87;1.77;;;37.70;23.70;;;;;;5018394;28;21117;-84
2022/08/13 12:47:29;;;;;;;1.40;1.40;;;37.50;23.90;;;;;;5019688;28;20438;-85
2022/08/13 12:50:46;;;;;;;1.60;1.50;;;36.40;24.70;;;;;;5005019;28;20497;-84
2022/08/13 13:04:10;;;;;;;1.70;1.60;;;36.60;24.70;;;;;;4314891;26;20591;-85
2022/08/13 13:07:00;;;;;;;1.70;1.60;;;36.90;24.40;;;;;;5044018;28;20494;-86
2022/08/13 13:09:38;;;;;;;1.60;1.50;;;36.20;24.70;;;;;;5058707;28;20452;-84
2022/08/13 13:12:17;;;;;;;1.63;1.53;;;36.30;25.10;;;;;;5052984;28;20812;-87
2022/08/13 13:14:56;;;;;;;1.70;1.60;;;37.20;24.20;;;;;;5055949;28;20484;-87
2022/08/13 13:17:48;;;;;;;1.80;1.47;;;36.70;24.50;;;;;;5059723;28;20444;-84
2022/08/13 13:20:47;;;;;;;3.07;2.53;;;36.80;24.60;;;;;;5058831;28;20938;-84
2022/08/13 13:23:31;;;;;;;3.03;1.63;;;36.40;24.90;;;;;;5066935;23;20729;-81
2022/08/13 13:27:00;;;;;;;1.60;1.50;;;36.70;25.20;;;;;;5009174;28;20458;-85
2022/08/13 13:30:12;;;;;;;1.60;1.50;;;37.10;24.70;;;;;;5002453;28;20414;-87
2022/08/13 13:32:49;;;;;;;2.83;1.73;;;36.50;24.90;;;;;;5010767;28;20456;-86
2022/08/13 13:35:27;;;;;;;1.90;1.80;;;36.10;25.60;;;;;;4962902;28;20491;-85
2022/08/13 13:38:50;;;;;;;1.67;1.50;;;36.20;25.60;;;;;;4974962;28;20452;-89
2022/08/13 13:41:31;;;;;;;1.60;1.50;;;36.80;24.90;;;;;;5001041;28;20466;-83
2022/08/13 13:44:32;;;;;;;;;;;;;;;;;;;;;
2022/08/13 13:47:48;;;;;;;1.80;1.70;;;36.30;24.70;;;;;;4942688;28;20483;-85
2022/08/13 13:50:33;;;;;;;1.70;1.60;;;36.30;25.20;;;;;;5003163;28;20457;-84
2022/08/13 13:53:23;;;;;;;1.87;1.77;;;36.50;24.90;;;;;;4998718;28;20446;-84
2022/08/13 13:56:24;;;;;;;1.97;1.77;;;36.50;24.80;;;;;;4980956;28;20517;-84
2022/08/13 13:59:26;;;;;;;2.17;2.07;;;36.60;24.50;;;;;;4995826;28;20443;-84
2022/08/13 14:02:36;;;;;;;1.90;1.80;;;36.50;24.60;;;;;;4994684;28;20494;-86
2022/08/13 14:06:10;;;;;;;1.87;1.77;;;37.40;24.50;;;;;;4940847;28;20528;-85
2022/08/13 14:09:18;;;;;;;1.80;1.70;;;37.30;24.10;;;;;;4991020;28;20450;-82
2022/08/13 14:12:34;;;;;;;1.93;1.83;;;36.60;24.50;;;;;;4993112;28;20775;-84
2022/08/13 14:15:57;;;;;;;1.97;1.87;;;36.20;24.70;;;;;;5038342;23;20511;-84
2022/08/13 14:19:17;;;;;;;2.03;1.47;;;36.20;24.70;;;;;;5009320;28;20419;-86
2022/08/13 14:22:07;;;;;;;1.70;1.60;;;36.10;24.90;;;;;;5019082;28;20428;-83
2022/08/13 14:25:06;;;;;;;1.70;1.60;;;35.90;24.00;;;;;;5151228;23;20493;-82
2022/08/13 14:38:07;;;;;;;;;;;;;;;;;;;;;
2022/08/13 14:40:52;;;;;;;2.00;1.80;;;35.30;24.50;;;;;;5051921;28;20445;-84
2022/08/13 14:46:43;;;;;;;1.97;1.87;;;35.20;24.40;;;;;;5197526;23;20507;-85
2022/08/13 14:53:32;;;;;;;1.97;1.87;;;34.90;25.30;;;;;;5072448;28;20476;-82
2022/08/13 15:07:57;;;;;;;1.90;1.80;;;34.90;25.10;;;;;;4956575;28;20480;-84
2022/08/13 15:10:34;;;;;;;1.80;1.70;;;35.40;24.50;;;;;;5026560;28;20456;-83
2022/08/13 15:13:25;;;;;;;1.97;1.77;;;35.40;24.50;;;;;;5023053;28;20491;-82
2022/08/13 15:16:36;;;;;;;1.27;1.27;;;35.00;24.70;;;;;;5022217;28;20447;-83
2022/08/13 15:19:11;;;;;;;1.83;1.73;;;35.10;24.70;;;;;;4997994;28;20463;-88
2022/08/13 15:21:56;;;;;;;1.60;1.50;;;35.00;24.90;;;;;;5046589;28;20469;-85
2022/08/13 15:24:32;;;;;;;1.80;1.70;;;35.20;24.70;;;;;;5027602;28;20469;-83
2022/08/13 15:27:45;;;;;;;1.90;1.80;;;35.00;24.80;;;;;;5009398;28;20486;-84
2022/08/13 15:30:22;;;;;;;1.87;1.77;;;34.80;24.70;;;;;;5019320;28;20476;-84
2022/08/13 15:33:21;;;;;;;1.67;1.57;;;34.70;24.60;;;;;;5026366;28;20457;-85
2022/08/13 15:36:03;;;;;;;3.43;2.30;;;34.70;24.50;;;;;;4987000;28;20456;-85
2022/08/13 15:38:42;;;;;;;1.57;1.47;;;34.80;25.00;;;;;;5010666;28;20503;-84
2022/08/13 15:41:21;;;;;;;3.70;2.30;;;34.90;24.70;;;;;;5014240;28;20485;-85
2022/08/13 15:43:54;;;;;;;1.77;1.67;;;35.00;24.90;;;;;;5016276;28;20584;-85
2022/08/13 15:46:45;;;;;;;1.80;1.70;;;34.90;24.90;;;;;;5006349;28;20598;-82
2022/08/13 15:49:13;;;;;;;1.53;1.43;;;34.50;24.60;;;;;;5011696;28;20481;-84
2022/08/13 15:52:02;;;;;;;2.03;1.50;;;34.40;24.70;;;;;;5032757;28;20458;-87
2022/08/13 15:54:55;;;;;;;1.60;1.50;;;34.60;24.40;;;;;;5025044;28;20489;-83
2022/08/13 15:57:27;;;;;;;1.63;1.53;;;34.60;24.40;;;;;;5006751;28;20439;-86
2022/08/13 16:00:26;;;;;;;2.03;1.93;;;34.70;24.50;;;;;;5014317;28;20431;-86
2022/08/13 16:02:59;;;;;;;1.80;1.70;;;34.80;24.80;;;;;;5002755;28;20475;-85
2022/08/13 16:05:34;;;;;;;1.80;1.70;;;34.80;25.20;;;;;;5017380;28;20498;-83
2022/08/13 16:08:08;;;;;;;1.60;1.50;;;34.70;24.80;;;;;;5013262;28;20449;-83
2022/08/13 16:10:49;;;;;;;2.67;1.50;;;34.70;24.60;;;;;;5003260;28;20545;-83
2022/08/13 16:13:44;;;;;;;1.60;1.50;;;34.50;24.60;;;;;;5041792;28;20476;-82
2022/08/13 16:16:28;;;;;;;2.20;2.00;;;34.70;24.50;;;;;;5034838;28;20939;-83
2022/08/13 16:19:10;;;;;;;1.80;1.70;;;34.50;24.60;;;;;;5005794;28;21111;-84
2022/08/13 16:22:29;;;;;;;1.87;1.77;;;34.30;25.10;;;;;;5010020;28;20520;-82
2022/08/13 16:25:29;;;;;;;1.70;1.60;;;34.40;25.10;;;;;;4999345;28;20532;-86
2022/08/13 16:28:10;;;;;;;2.20;2.00;;;34.50;25.00;;;;;;5005896;28;20832;-84